createdAt,value
2022-09-25T00:01:48.899Z,100.00
2022-09-25T00:04:15.329Z,100.00
2022-09-25T00:06:42.195Z,100.00
2022-09-25T00:09:10.208Z,100.00
2022-09-25T00:11:38.570Z,100.00
2022-09-25T00:14:04.934Z,100.00
2022-09-25T00:16:31.496Z,100.00
2022-09-25T00:19:17.132Z,100.00
2022-09-25T00:21:43.479Z,100.00
2022-09-25T00:24:10.209Z,100.00
2022-09-25T00:26:40.415Z,100.00
2022-09-25T00:29:06.993Z,100.00
2022-09-25T00:31:33.387Z,100.00
2022-09-25T00:34:00.479Z,100.00
2022-09-25T00:36:26.858Z,100.00
2022-09-25T00:38:54.264Z,100.00
2022-09-25T00:41:21.519Z,100.00
2022-09-25T00:43:50.573Z,100.00
2022-09-25T00:46:23.063Z,100.00
2022-09-25T00:48:49.477Z,100.00
2022-09-25T00:51:16.738Z,100.00
2022-09-25T00:53:43.072Z,100.00
2022-09-25T00:56:09.720Z,100.00
2022-09-25T00:58:36.053Z,100.00
2022-09-25T01:01:02.473Z,100.00
2022-09-25T01:03:28.918Z,100.00
2022-09-25T01:05:56.127Z,100.00
2022-09-25T01:08:23.366Z,100.00
2022-09-25T01:10:50.159Z,100.00
2022-09-25T01:13:16.563Z,100.00
2022-09-25T01:15:42.960Z,100.00
2022-09-25T01:18:15.187Z,100.00
2022-09-25T01:20:50.742Z,100.00
2022-09-25T01:23:23.002Z,100.00
2022-09-25T01:26:11.438Z,100.00
2022-09-25T01:28:52.104Z,100.00
2022-09-25T01:31:22.067Z,100.00
2022-09-25T01:33:49.393Z,100.00
2022-09-25T01:36:26.142Z,100.00
2022-09-25T01:39:11.127Z,100.00
2022-09-25T01:41:45.052Z,100.00
2022-09-25T01:44:13.532Z,100.00
2022-09-25T01:46:44.648Z,100.00
2022-09-25T01:49:19.256Z,100.00
2022-09-25T01:51:46.975Z,100.00
2022-09-25T01:54:17.921Z,100.00
2022-09-25T01:56:47.194Z,100.00
2022-09-25T01:59:17.319Z,100.00
2022-09-25T02:01:43.971Z,100.00
2022-09-25T02:04:12.459Z,100.00
2022-09-25T02:06:38.919Z,100.00
2022-09-25T02:09:07.371Z,100.00
2022-09-25T02:11:35.078Z,100.00
2022-09-25T02:14:06.534Z,100.00
2022-09-25T02:16:37.540Z,100.00
2022-09-25T02:19:22.813Z,100.00
2022-09-25T02:21:58.866Z,100.00
2022-09-25T02:24:27.118Z,100.00
2022-09-25T02:26:53.491Z,100.00
2022-09-25T02:29:19.870Z,100.00
2022-09-25T02:31:54.713Z,100.00
2022-09-25T02:34:21.563Z,100.00
2022-09-25T02:36:48.677Z,100.00
2022-09-25T02:39:15.723Z,100.00
2022-09-25T02:41:52.108Z,100.00
2022-09-25T02:44:36.986Z,100.00
2022-09-25T02:47:07.663Z,100.00
2022-09-25T02:49:44.402Z,100.00
2022-09-25T02:52:11.534Z,100.00
2022-09-25T02:54:56.656Z,100.00
2022-09-25T02:57:43.365Z,100.00
2022-09-25T03:00:10.096Z,100.00
2022-09-25T03:02:36.707Z,100.00
2022-09-25T03:05:03.544Z,100.00
2022-09-25T03:07:49.866Z,100.00
2022-09-25T03:10:16.591Z,100.00
2022-09-25T03:12:42.924Z,100.00
2022-09-25T03:15:09.491Z,100.00
2022-09-25T03:17:37.357Z,100.00
2022-09-25T03:20:03.877Z,100.00
2022-09-25T03:22:30.221Z,100.00
2022-09-25T03:24:58.925Z,100.00
2022-09-25T03:27:28.087Z,100.00
2022-09-25T03:29:55.345Z,100.00
2022-09-25T03:32:22.143Z,100.00
2022-09-25T03:34:48.531Z,100.00
2022-09-25T03:37:14.860Z,100.00
2022-09-25T03:39:41.385Z,100.00
2022-09-25T03:42:07.866Z,100.00
2022-09-25T03:44:34.262Z,100.00
2022-09-25T03:47:00.602Z,100.00
2022-09-25T03:49:27.035Z,100.00
2022-09-25T03:51:53.374Z,100.00
2022-09-25T03:54:19.735Z,100.00
2022-09-25T03:56:46.092Z,100.00
2022-09-25T03:59:12.423Z,100.00
2022-09-25T04:01:38.899Z,100.00
2022-09-25T04:04:05.329Z,100.00
2022-09-25T04:06:31.701Z,100.00
2022-09-25T04:08:58.097Z,100.00
2022-09-25T04:11:24.483Z,100.00
2022-09-25T04:13:50.916Z,100.00
2022-09-25T04:16:17.446Z,100.00
2022-09-25T04:18:43.881Z,100.00
2022-09-25T04:21:11.028Z,100.00
2022-09-25T04:23:37.480Z,100.00
2022-09-25T04:26:03.825Z,100.00
2022-09-25T04:28:32.197Z,100.00
2022-09-25T04:30:58.681Z,100.00
2022-09-25T04:33:43.775Z,100.00
2022-09-25T04:36:10.158Z,100.00
2022-09-25T04:38:36.543Z,100.00
2022-09-25T04:41:03.015Z,100.00
2022-09-25T04:43:29.534Z,100.00
2022-09-25T04:45:56.008Z,100.00
2022-09-25T04:48:22.466Z,100.00
2022-09-25T04:50:49.350Z,100.00
2022-09-25T04:53:16.392Z,100.00
2022-09-25T04:55:42.761Z,100.00
2022-09-25T04:58:09.079Z,100.00
2022-09-25T05:00:38.214Z,100.00
2022-09-25T05:03:04.915Z,100.00
2022-09-25T05:05:31.524Z,100.00
2022-09-25T05:07:58.779Z,100.00
2022-09-25T05:10:27.697Z,100.00
2022-09-25T05:12:58.212Z,100.00
2022-09-25T05:15:24.685Z,100.00
2022-09-25T05:17:53.478Z,100.00
2022-09-25T05:20:19.902Z,100.00
2022-09-25T05:22:46.592Z,100.00
2022-09-25T05:25:13.038Z,100.00
2022-09-25T05:27:39.398Z,100.00
2022-09-25T05:30:06.240Z,100.00
2022-09-25T05:32:32.704Z,100.00
2022-09-25T05:34:59.091Z,100.00
2022-09-25T05:37:25.423Z,100.00
2022-09-25T05:39:52.338Z,100.00
2022-09-25T05:42:19.529Z,100.00
2022-09-25T05:44:46.237Z,100.00
2022-09-25T05:47:12.660Z,100.00
2022-09-25T05:49:39.001Z,100.00
2022-09-25T05:52:05.344Z,100.00
2022-09-25T05:54:31.716Z,100.00
2022-09-25T05:56:58.185Z,100.00
2022-09-25T05:59:24.562Z,100.00
2022-09-25T06:01:51.183Z,100.00
2022-09-25T06:04:17.574Z,100.00
2022-09-25T06:06:44.232Z,100.00
2022-09-25T06:09:10.652Z,100.00
2022-09-25T06:11:37.015Z,100.00
2022-09-25T06:14:03.913Z,100.00
2022-09-25T06:16:31.162Z,100.00
2022-09-25T06:18:57.675Z,100.00
2022-09-25T06:21:24.344Z,100.00
2022-09-25T06:23:50.684Z,100.00
2022-09-25T06:26:17.068Z,100.00
2022-09-25T06:28:43.429Z,100.00
2022-09-25T06:31:10.152Z,100.00
2022-09-25T06:33:36.606Z,100.00
2022-09-25T06:36:04.617Z,100.00
2022-09-25T06:38:33.287Z,100.00
2022-09-25T06:41:00.584Z,100.00
2022-09-25T06:43:27.803Z,100.00
2022-09-25T06:45:54.307Z,100.00
2022-09-25T06:48:22.084Z,100.00
2022-09-25T06:50:49.043Z,100.00
2022-09-25T06:53:15.761Z,100.00
2022-09-25T06:55:42.197Z,100.00
2022-09-25T06:58:09.945Z,100.00
2022-09-25T07:00:36.297Z,100.00
2022-09-25T07:03:21.428Z,100.00
2022-09-25T07:05:48.446Z,100.00
2022-09-25T07:08:16.205Z,100.00
2022-09-25T07:10:49.294Z,100.00
2022-09-25T07:13:16.669Z,100.00
2022-09-25T07:15:43.246Z,100.00
2022-09-25T07:18:09.660Z,100.00
2022-09-25T07:20:36.859Z,100.00
2022-09-25T07:23:04.473Z,100.00
2022-09-25T07:25:33.790Z,100.00
2022-09-25T07:28:00.399Z,100.00
2022-09-25T07:30:29.894Z,100.00
2022-09-25T07:33:00.108Z,100.00
2022-09-25T07:35:27.315Z,100.00
2022-09-25T07:37:57.489Z,100.00
2022-09-25T07:40:24.513Z,100.00
2022-09-25T07:42:50.978Z,100.00
2022-09-25T07:45:17.410Z,100.00
2022-09-25T07:47:43.795Z,100.00
2022-09-25T07:50:15.284Z,100.00
2022-09-25T07:52:41.995Z,100.00
2022-09-25T07:55:09.117Z,100.00
2022-09-25T07:57:35.541Z,100.00
2022-09-25T08:00:02.044Z,100.00
2022-09-25T08:02:28.604Z,100.00
2022-09-25T08:04:55.059Z,100.00
2022-09-25T08:07:21.429Z,100.00
2022-09-25T08:09:47.983Z,100.00
2022-09-25T08:12:14.349Z,100.00
2022-09-25T08:14:42.059Z,100.00
2022-09-25T08:17:08.477Z,100.00
2022-09-25T08:19:35.010Z,100.00
2022-09-25T08:22:01.490Z,100.00
2022-09-25T08:24:27.860Z,100.00
2022-09-25T08:26:54.419Z,100.00
2022-09-25T08:29:20.756Z,100.00
2022-09-25T08:31:47.833Z,100.00
2022-09-25T08:34:39.397Z,100.00
2022-09-25T08:37:01.709Z,100.00
2022-09-25T08:39:28.117Z,100.00
2022-09-25T08:41:55.216Z,100.00
2022-09-25T08:44:26.494Z,100.00
2022-09-25T08:47:19.069Z,100.00
2022-09-25T08:49:47.832Z,100.00
2022-09-25T08:52:16.287Z,100.00
2022-09-25T08:54:45.089Z,100.00
2022-09-25T08:57:24.248Z,100.00
2022-09-25T08:59:52.690Z,100.00
2022-09-25T09:02:19.829Z,100.00
2022-09-25T09:04:51.348Z,100.00
2022-09-25T09:07:32.769Z,100.00
2022-09-25T09:10:02.087Z,100.00
2022-09-25T09:12:40.237Z,100.00
2022-09-25T09:15:22.950Z,100.00
2022-09-25T09:17:49.321Z,100.00
2022-09-25T09:20:19.381Z,100.00
2022-09-25T09:22:50.949Z,100.00
2022-09-25T09:25:25.497Z,100.00
2022-09-25T09:28:02.164Z,100.00
2022-09-25T09:30:31.377Z,100.00
2022-09-25T09:33:13.050Z,100.00
2022-09-25T09:35:42.415Z,100.00
2022-09-25T09:38:15.329Z,100.00
2022-09-25T09:40:41.677Z,100.00
2022-09-25T09:43:31.241Z,100.00
2022-09-25T09:46:16.560Z,100.00
2022-09-25T09:48:50.819Z,100.00
2022-09-25T09:51:24.333Z,100.00
2022-09-25T09:53:50.594Z,100.00
2022-09-25T09:56:21.300Z,100.00
2022-09-25T09:58:54.444Z,100.00
2022-09-25T10:01:40.369Z,98.17
2022-09-25T10:04:11.378Z,99.07
2022-09-25T10:06:38.742Z,96.59
2022-09-25T10:09:06.770Z,97.12
2022-09-25T10:11:33.418Z,94.85
2022-09-25T10:14:02.091Z,91.90
2022-09-25T10:16:28.469Z,94.02
2022-09-25T10:18:57.249Z,93.43
2022-09-25T10:21:42.248Z,94.45
2022-09-25T10:24:08.832Z,91.78
2022-09-25T10:26:36.758Z,90.96
2022-09-25T10:29:23.300Z,93.74
2022-09-25T10:31:56.591Z,92.07
2022-09-25T10:34:24.102Z,92.07
2022-09-25T10:36:51.633Z,93.26
2022-09-25T10:39:46.677Z,94.64
2022-09-25T10:42:33.054Z,94.52
2022-09-25T10:44:59.404Z,95.33
2022-09-25T10:47:48.538Z,96.44
2022-09-25T10:50:16.593Z,93.17
2022-09-25T10:52:59.020Z,87.95
2022-09-25T10:55:28.348Z,87.92
2022-09-25T10:57:58.970Z,80.99
2022-09-25T11:00:26.678Z,81.09
2022-09-25T11:02:54.603Z,80.19
2022-09-25T11:05:22.078Z,79.10
2022-09-25T11:07:52.259Z,77.53
2022-09-25T11:10:19.715Z,78.89
2022-09-25T11:12:46.546Z,78.08
2022-09-25T11:15:16.169Z,78.00
2022-09-25T11:17:43.017Z,78.71
2022-09-25T11:20:16.360Z,79.74
2022-09-25T11:22:44.122Z,76.08
2022-09-25T11:25:15.200Z,77.33
2022-09-25T11:27:53.415Z,74.15
2022-09-25T11:30:20.173Z,77.85
2022-09-25T11:32:52.463Z,80.18
2022-09-25T11:35:25.112Z,82.50
2022-09-25T11:38:02.476Z,85.04
2022-09-25T11:40:53.528Z,84.95
2022-09-25T11:43:21.982Z,81.95
2022-09-25T11:45:49.370Z,73.12
2022-09-25T11:48:24.818Z,72.76
2022-09-25T11:51:07.332Z,72.23
2022-09-25T11:53:33.632Z,72.38
2022-09-25T11:56:06.584Z,67.93
2022-09-25T11:58:46.645Z,68.84
2022-09-25T12:01:25.894Z,73.17
2022-09-25T12:04:04.454Z,74.96
2022-09-25T12:06:49.527Z,72.54
2022-09-25T12:09:15.781Z,77.48
2022-09-25T12:12:05.821Z,72.67
2022-09-25T12:14:39.274Z,68.99
2022-09-25T12:17:14.771Z,66.13
2022-09-25T12:19:45.663Z,65.43
2022-09-25T12:22:29.932Z,68.46
2022-09-25T12:24:59.834Z,66.11
2022-09-25T12:27:35.478Z,67.07
2022-09-25T12:30:21.304Z,70.84
2022-09-25T12:32:53.446Z,72.42
2022-09-25T12:35:38.687Z,73.72
2022-09-25T12:38:10.938Z,75.50
2022-09-25T12:40:39.169Z,77.41
2022-09-25T12:43:25.130Z,75.94
2022-09-25T12:45:52.891Z,76.50
2022-09-25T12:48:25.697Z,76.33
2022-09-25T12:50:51.981Z,77.85
2022-09-25T12:53:22.605Z,76.01
2022-09-25T12:56:07.753Z,76.36
2022-09-25T12:58:37.042Z,79.33
2022-09-25T13:01:06.266Z,79.16
2022-09-25T13:03:39.164Z,79.19
2022-09-25T13:06:14.547Z,78.50
2022-09-25T13:08:43.201Z,77.99
2022-09-25T13:11:14.720Z,76.83
2022-09-25T13:13:44.657Z,79.96
2022-09-25T13:16:11.107Z,76.56
2022-09-25T13:18:38.557Z,78.16
2022-09-25T13:21:23.745Z,77.81
2022-09-25T13:23:50.577Z,79.51
2022-09-25T13:26:18.487Z,79.04
2022-09-25T13:29:01.597Z,80.91
2022-09-25T13:31:32.036Z,81.81
2022-09-25T13:34:01.373Z,78.27
2022-09-25T13:36:30.914Z,77.02
2022-09-25T13:39:21.040Z,78.68
2022-09-25T13:42:02.531Z,78.72
2022-09-25T13:44:42.077Z,76.05
2022-09-25T13:47:23.730Z,77.58
2022-09-25T13:49:53.669Z,77.64
2022-09-25T13:52:29.635Z,80.08
2022-09-25T13:55:08.393Z,79.50
2022-09-25T13:57:54.889Z,80.71
2022-09-25T14:00:21.305Z,76.73
2022-09-25T14:02:48.032Z,77.47
2022-09-25T14:05:18.542Z,78.05
2022-09-25T14:07:45.595Z,75.52
2022-09-25T14:10:12.684Z,77.04
2022-09-25T14:12:42.575Z,76.84
2022-09-25T14:15:13.282Z,75.94
2022-09-25T14:17:39.629Z,72.14
2022-09-25T14:20:07.299Z,71.62
2022-09-25T14:22:44.782Z,72.15
2022-09-25T14:25:27.822Z,70.66
2022-09-25T14:27:54.451Z,71.21
2022-09-25T14:30:20.926Z,72.05
2022-09-25T14:32:55.741Z,72.07
2022-09-25T14:35:38.531Z,72.48
2022-09-25T14:38:07.897Z,75.31
2022-09-25T14:40:40.150Z,73.49
2022-09-25T14:43:10.538Z,75.74
2022-09-25T14:45:39.708Z,73.01
2022-09-25T14:48:07.453Z,73.55
2022-09-25T14:50:35.705Z,73.83
2022-09-25T14:53:03.052Z,74.29
2022-09-25T14:55:32.484Z,75.23
2022-09-25T14:58:00.119Z,74.20
2022-09-25T15:00:27.317Z,77.21
2022-09-25T15:02:54.374Z,78.78
2022-09-25T15:05:26.790Z,77.59
2022-09-25T15:07:53.475Z,77.26
2022-09-25T15:10:28.904Z,79.37
2022-09-25T15:13:02.225Z,80.06
2022-09-25T15:15:28.536Z,77.81
2022-09-25T15:17:57.878Z,79.57
2022-09-25T15:20:24.872Z,79.59
2022-09-25T15:23:01.792Z,81.46
2022-09-25T15:25:35.367Z,81.49
2022-09-25T15:28:01.738Z,81.49
2022-09-25T15:30:28.066Z,81.81
2022-09-25T15:32:59.854Z,80.32
2022-09-25T15:35:27.988Z,81.33
2022-09-25T15:38:01.853Z,80.69
2022-09-25T15:40:28.635Z,80.24
2022-09-25T15:42:55.101Z,82.80
2022-09-25T15:45:33.684Z,80.44
2022-09-25T15:48:00.732Z,80.41
2022-09-25T15:50:27.591Z,81.16
2022-09-25T15:52:55.296Z,81.64
2022-09-25T15:55:21.697Z,80.83
2022-09-25T15:57:48.868Z,82.25
2022-09-25T16:00:38.708Z,82.84
2022-09-25T16:03:25.395Z,81.53
2022-09-25T16:05:52.498Z,81.89
2022-09-25T16:08:24.965Z,83.16
2022-09-25T16:11:03.548Z,80.84
2022-09-25T16:13:29.881Z,83.54
2022-09-25T16:15:56.485Z,84.82
2022-09-25T16:18:41.230Z,84.25
2022-09-25T16:21:13.534Z,86.30
2022-09-25T16:23:42.291Z,86.38
2022-09-25T16:26:22.140Z,86.79
2022-09-25T16:28:52.317Z,89.47
2022-09-25T16:31:20.436Z,89.70
2022-09-25T16:33:49.242Z,87.63
2022-09-25T16:36:17.992Z,88.78
2022-09-25T16:39:05.095Z,88.50
2022-09-25T16:41:31.527Z,89.02
2022-09-25T16:44:17.369Z,87.30
2022-09-25T16:46:44.601Z,86.50
2022-09-25T16:49:12.324Z,87.66
2022-09-25T16:51:43.679Z,89.70
2022-09-25T16:54:11.122Z,90.07
2022-09-25T16:56:38.563Z,88.72
2022-09-25T16:59:06.026Z,89.29
2022-09-25T17:01:32.381Z,88.81
2022-09-25T17:03:59.964Z,89.77
2022-09-25T17:06:26.643Z,90.02
2022-09-25T17:08:52.993Z,90.40
2022-09-25T17:11:19.603Z,92.87
2022-09-25T17:13:46.163Z,95.24
2022-09-25T17:16:13.475Z,97.30
2022-09-25T17:18:40.999Z,98.63
2022-09-25T17:21:10.176Z,97.73
2022-09-25T17:23:36.514Z,97.28
2022-09-25T17:26:04.138Z,96.11
2022-09-25T17:28:32.851Z,95.02
2022-09-25T17:31:00.312Z,94.11
2022-09-25T17:33:27.393Z,93.35
2022-09-25T17:35:59.016Z,94.94
2022-09-25T17:38:26.931Z,94.45
2022-09-25T17:40:53.529Z,95.10
2022-09-25T17:43:20.029Z,96.14
2022-09-25T17:45:54.085Z,95.97
2022-09-25T17:48:24.277Z,98.69
2022-09-25T17:50:51.188Z,100.00
2022-09-25T17:53:18.360Z,100.00
2022-09-25T17:55:44.767Z,100.00
2022-09-25T17:58:11.160Z,100.00
2022-09-25T18:00:37.504Z,100.00
2022-09-25T18:03:03.947Z,100.00
2022-09-25T18:05:31.677Z,100.00
2022-09-25T18:07:59.075Z,100.00
2022-09-25T18:10:28.869Z,100.00
2022-09-25T18:12:56.022Z,100.00
2022-09-25T18:15:22.354Z,100.00
2022-09-25T18:17:48.725Z,100.00
2022-09-25T18:20:33.720Z,100.00
2022-09-25T18:23:00.175Z,100.00
2022-09-25T18:25:26.729Z,100.00
2022-09-25T18:27:53.482Z,100.00
2022-09-25T18:30:23.014Z,100.00
2022-09-25T18:32:49.834Z,100.00
2022-09-25T18:35:16.236Z,100.00
2022-09-25T18:37:42.690Z,100.00
2022-09-25T18:40:09.598Z,100.00
2022-09-25T18:42:35.995Z,100.00
2022-09-25T18:45:03.666Z,100.00
2022-09-25T18:47:29.998Z,100.00
2022-09-25T18:49:56.340Z,100.00
2022-09-25T18:52:22.805Z,100.00
2022-09-25T18:54:49.162Z,100.00
2022-09-25T18:57:15.723Z,100.00
2022-09-25T18:59:42.039Z,100.00
2022-09-25T19:02:19.512Z,100.00
2022-09-25T19:04:46.178Z,100.00
2022-09-25T19:07:12.515Z,100.00
2022-09-25T19:09:38.827Z,100.00
2022-09-25T19:12:05.985Z,100.00
2022-09-25T19:14:32.361Z,100.00
2022-09-25T19:16:58.723Z,100.00
2022-09-25T19:19:25.039Z,100.00
2022-09-25T19:21:51.442Z,100.00
2022-09-25T19:24:18.375Z,100.00
2022-09-25T19:26:44.870Z,100.00
2022-09-25T19:29:11.324Z,100.00
2022-09-25T19:31:37.788Z,100.00
2022-09-25T19:34:05.017Z,100.00
2022-09-25T19:36:31.676Z,100.00
2022-09-25T19:38:58.107Z,100.00
2022-09-25T19:41:27.514Z,100.00
2022-09-25T19:43:54.422Z,100.00
2022-09-25T19:46:20.792Z,100.00
2022-09-25T19:48:47.548Z,100.00
2022-09-25T19:51:14.160Z,100.00
2022-09-25T19:53:40.773Z,100.00
2022-09-25T19:56:07.218Z,100.00
2022-09-25T19:58:36.242Z,100.00
2022-09-25T20:01:03.111Z,100.00
2022-09-25T20:03:29.792Z,100.00
2022-09-25T20:05:56.422Z,100.00
2022-09-25T20:08:22.817Z,100.00
2022-09-25T20:10:49.134Z,100.00
2022-09-25T20:13:15.482Z,100.00
2022-09-25T20:15:42.785Z,100.00
2022-09-25T20:18:09.398Z,100.00
2022-09-25T20:20:35.793Z,100.00
2022-09-25T20:23:02.143Z,100.00
2022-09-25T20:25:28.512Z,100.00
2022-09-25T20:27:54.951Z,100.00
2022-09-25T20:30:21.517Z,100.00
2022-09-25T20:32:47.873Z,100.00
2022-09-25T20:35:14.194Z,100.00
2022-09-25T20:37:40.525Z,100.00
2022-09-25T20:40:07.052Z,100.00
2022-09-25T20:42:33.939Z,100.00
2022-09-25T20:45:00.271Z,100.00
2022-09-25T20:47:30.145Z,100.00
2022-09-25T20:49:57.301Z,100.00
2022-09-25T20:52:23.941Z,100.00
2022-09-25T20:54:50.536Z,100.00
2022-09-25T20:57:16.849Z,100.00
2022-09-25T20:59:43.175Z,100.00
2022-09-25T21:02:09.641Z,100.00
2022-09-25T21:04:36.096Z,100.00
2022-09-25T21:07:03.629Z,100.00
2022-09-25T21:09:30.024Z,100.00
2022-09-25T21:11:56.343Z,100.00
2022-09-25T21:14:24.765Z,100.00
2022-09-25T21:16:51.226Z,100.00
2022-09-25T21:19:18.167Z,100.00
2022-09-25T21:21:44.594Z,100.00
2022-09-25T21:24:12.380Z,100.00
2022-09-25T21:26:38.719Z,100.00
2022-09-25T21:29:05.744Z,100.00
2022-09-25T21:31:34.590Z,100.00
2022-09-25T21:34:00.941Z,100.00
2022-09-25T21:36:27.510Z,100.00
2022-09-25T21:38:53.830Z,100.00
2022-09-25T21:41:23.715Z,100.00
2022-09-25T21:44:11.489Z,100.00
2022-09-25T21:46:37.873Z,100.00
2022-09-25T21:49:04.699Z,100.00
2022-09-25T21:51:32.011Z,100.00
2022-09-25T21:53:58.404Z,100.00
2022-09-25T21:56:25.364Z,100.00
2022-09-25T21:58:52.056Z,100.00
2022-09-25T22:01:19.143Z,100.00
2022-09-25T22:03:51.006Z,100.00
2022-09-25T22:06:18.378Z,100.00
2022-09-25T22:08:45.066Z,100.00
2022-09-25T22:11:11.406Z,100.00
2022-09-25T22:13:38.328Z,100.00
2022-09-25T22:16:08.485Z,100.00
2022-09-25T22:18:40.312Z,100.00
2022-09-25T22:21:06.620Z,100.00
2022-09-25T22:23:32.977Z,100.00
2022-09-25T22:26:02.525Z,100.00
2022-09-25T22:28:28.919Z,100.00
2022-09-25T22:30:55.325Z,100.00
2022-09-25T22:33:21.742Z,100.00
2022-09-25T22:35:48.135Z,100.00
2022-09-25T22:38:14.461Z,100.00
2022-09-25T22:40:40.836Z,100.00
2022-09-25T22:43:07.245Z,100.00
2022-09-25T22:45:33.567Z,100.00
2022-09-25T22:48:00.076Z,100.00
2022-09-25T22:50:26.905Z,100.00
2022-09-25T22:52:58.178Z,100.00
2022-09-25T22:55:24.903Z,100.00
2022-09-25T22:57:51.263Z,100.00
2022-09-25T23:00:17.567Z,100.00
2022-09-25T23:02:44.034Z,100.00
2022-09-25T23:05:10.391Z,100.00
2022-09-25T23:07:36.741Z,100.00
2022-09-25T23:10:03.128Z,100.00
2022-09-25T23:12:30.856Z,100.00
2022-09-25T23:14:57.276Z,100.00
2022-09-25T23:17:23.697Z,100.00
2022-09-25T23:19:50.015Z,100.00
2022-09-25T23:22:16.330Z,100.00
2022-09-25T23:24:42.664Z,100.00
2022-09-25T23:27:08.975Z,100.00
2022-09-25T23:29:35.292Z,100.00
2022-09-25T23:32:02.654Z,100.00
2022-09-25T23:34:28.995Z,100.00
2022-09-25T23:36:55.461Z,100.00
2022-09-25T23:39:21.840Z,100.00
2022-09-25T23:41:48.249Z,100.00
2022-09-25T23:44:14.571Z,100.00
2022-09-25T23:46:41.216Z,100.00
2022-09-25T23:49:07.666Z,100.00
2022-09-25T23:51:33.997Z,100.00
2022-09-25T23:54:00.576Z,100.00
2022-09-25T23:56:33.871Z,100.00
2022-09-25T23:59:01.179Z,100.00
